createdAt,value
2017-09-25T00:02:20.199Z,58.30
2017-09-25T00:04:47.886Z,65.60
2017-09-25T00:07:15.496Z,53.80
2017-09-25T00:09:43.201Z,61.27
2017-09-25T00:12:10.867Z,63.37
2017-09-25T00:14:38.446Z,56.00
2017-09-25T00:17:06.059Z,64.13
2017-09-25T00:19:33.703Z,61.00
2017-09-25T00:22:01.616Z,64.50
2017-09-25T00:24:29.249Z,65.60
2017-09-25T00:26:56.840Z,60.30
2017-09-25T00:29:24.432Z,67.80
2017-09-25T00:31:52.036Z,62.07
2017-09-25T00:34:19.617Z,67.70
2017-09-25T00:36:47.257Z,60.33
2017-09-25T00:39:14.836Z,61.80
2017-09-25T00:41:42.411Z,67.97
2017-09-25T00:44:10.120Z,62.70
2017-09-25T00:46:37.721Z,70.70
2017-09-25T00:49:05.603Z,61.67
2017-09-25T00:51:33.246Z,69.67
2017-09-25T00:54:01.127Z,58.90
2017-09-25T00:56:28.787Z,61.33
2017-09-25T00:58:56.400Z,63.93
2017-09-25T01:01:36.204Z,68.77
2017-09-25T01:04:15.850Z,75.77
2017-09-25T01:06:43.475Z,58.77
2017-09-25T01:09:11.055Z,62.97
2017-09-25T01:11:38.939Z,69.83
2017-09-25T01:14:06.561Z,60.00
2017-09-25T01:16:34.141Z,61.60
2017-09-25T01:19:01.760Z,72.57
2017-09-25T01:21:29.362Z,70.33
2017-09-25T01:23:56.948Z,62.53
2017-09-25T01:26:24.569Z,63.17
2017-09-25T01:28:52.492Z,66.30
2017-09-25T01:31:20.129Z,70.83
2017-09-25T01:33:48.008Z,59.30
2017-09-25T01:36:15.584Z,61.83
2017-09-25T01:38:43.196Z,58.77
2017-09-25T01:41:10.773Z,62.17
2017-09-25T01:43:38.402Z,68.47
2017-09-25T01:46:05.979Z,66.73
2017-09-25T01:48:33.883Z,77.63
2017-09-25T01:51:01.496Z,60.97
2017-09-25T01:53:29.066Z,64.63
2017-09-25T01:55:56.687Z,65.13
2017-09-25T01:58:24.287Z,63.67
2017-09-25T02:00:51.866Z,56.40
2017-09-25T02:03:19.480Z,63.00
2017-09-25T02:05:47.069Z,64.10
2017-09-25T02:08:14.700Z,64.73
2017-09-25T02:10:42.287Z,58.43
2017-09-25T02:13:10.208Z,60.20
2017-09-25T02:15:38.367Z,59.40
2017-09-25T02:18:05.965Z,59.67
2017-09-25T02:20:33.636Z,59.10
2017-09-25T02:23:01.215Z,64.77
2017-09-25T02:25:29.146Z,56.77
2017-09-25T02:27:57.016Z,58.90
2017-09-25T02:30:24.631Z,53.33
2017-09-25T02:32:52.269Z,67.23
2017-09-25T02:35:19.838Z,53.73
2017-09-25T02:37:47.500Z,61.57
2017-09-25T02:40:15.120Z,63.03
2017-09-25T02:42:42.704Z,56.70
2017-09-25T02:45:10.332Z,50.00
2017-09-25T02:47:37.923Z,60.33
2017-09-25T02:50:05.556Z,57.50
2017-09-25T02:52:33.175Z,50.73
2017-09-25T02:55:00.775Z,61.60
2017-09-25T02:57:28.403Z,52.73
2017-09-25T02:59:55.994Z,58.30
2017-09-25T03:02:23.588Z,53.67
2017-09-25T03:04:51.230Z,54.57
2017-09-25T03:07:18.812Z,53.63
2017-09-25T03:09:46.438Z,62.63
2017-09-25T03:12:14.015Z,51.00
2017-09-25T03:14:41.594Z,55.10
2017-09-25T03:17:09.199Z,55.10
2017-09-25T03:19:36.796Z,54.67
2017-09-25T03:22:04.416Z,57.60
2017-09-25T03:24:32.015Z,57.67
2017-09-25T03:26:59.604Z,54.20
2017-09-25T03:29:27.234Z,54.23
2017-09-25T03:31:54.818Z,52.83
2017-09-25T03:34:22.458Z,54.80
2017-09-25T03:36:50.043Z,61.90
2017-09-25T03:39:17.706Z,57.30
2017-09-25T03:41:45.671Z,58.77
2017-09-25T03:44:13.264Z,60.53
2017-09-25T03:46:40.891Z,54.93
2017-09-25T03:49:08.481Z,74.53
2017-09-25T03:51:36.098Z,54.93
2017-09-25T03:54:03.719Z,64.80
2017-09-25T03:56:31.300Z,70.77
2017-09-25T03:58:59.216Z,50.70
2017-09-25T04:01:27.084Z,57.23
2017-09-25T04:03:54.671Z,55.77
2017-09-25T04:06:22.609Z,56.60
2017-09-25T04:08:50.199Z,55.27
2017-09-25T04:11:17.821Z,51.27
2017-09-25T04:13:45.417Z,54.87
2017-09-25T04:16:13.027Z,59.50
2017-09-25T04:18:40.658Z,58.67
2017-09-25T04:21:08.587Z,55.60
2017-09-25T04:23:36.240Z,57.47
2017-09-25T04:26:03.815Z,50.33
2017-09-25T04:28:31.397Z,57.17
2017-09-25T04:30:59.014Z,53.63
2017-09-25T04:33:26.907Z,49.83
2017-09-25T04:35:54.543Z,52.90
2017-09-25T04:38:22.121Z,52.43
2017-09-25T04:40:49.739Z,53.23
2017-09-25T04:43:17.343Z,47.20
2017-09-25T04:45:44.921Z,53.93
2017-09-25T04:48:12.550Z,52.03
2017-09-25T04:50:40.131Z,58.43
2017-09-25T04:53:08.003Z,53.43
2017-09-25T04:55:35.618Z,50.90
2017-09-25T04:58:03.204Z,51.73
2017-09-25T05:00:30.820Z,51.97
2017-09-25T05:02:58.400Z,55.67
2017-09-25T05:05:26.328Z,53.03
2017-09-25T05:07:53.943Z,50.10
2017-09-25T05:10:21.552Z,61.43
2017-09-25T05:12:49.176Z,53.23
2017-09-25T05:15:16.772Z,45.90
2017-09-25T05:17:44.364Z,45.47
2017-09-25T05:20:11.972Z,54.17
2017-09-25T05:22:39.552Z,45.47
2017-09-25T05:25:07.328Z,44.30
2017-09-25T05:27:34.914Z,47.87
2017-09-25T05:30:02.508Z,55.87
2017-09-25T05:32:30.136Z,57.93
2017-09-25T05:34:57.728Z,56.97
2017-09-25T05:37:25.360Z,46.37
2017-09-25T05:39:52.948Z,46.37
2017-09-25T05:42:20.855Z,53.17
2017-09-25T05:44:48.475Z,57.83
2017-09-25T05:47:16.127Z,53.10
2017-09-25T05:49:43.822Z,50.40
2017-09-25T05:52:11.398Z,47.60
2017-09-25T05:54:38.991Z,49.60
2017-09-25T05:57:06.935Z,50.57
2017-09-25T05:59:34.525Z,45.20
2017-09-25T06:02:02.231Z,68.17
2017-09-25T06:04:29.934Z,52.97
2017-09-25T06:06:57.692Z,50.47
2017-09-25T06:09:25.342Z,57.10
2017-09-25T06:11:52.940Z,53.67
2017-09-25T06:14:20.576Z,57.07
2017-09-25T06:16:48.177Z,70.57
2017-09-25T06:19:16.123Z,61.70
2017-09-25T06:21:43.731Z,55.70
2017-09-25T06:24:11.323Z,53.40
2017-09-25T06:26:39.717Z,77.43
2017-09-25T06:29:07.305Z,68.67
2017-09-25T06:31:34.887Z,60.57
2017-09-25T06:34:02.526Z,53.47
2017-09-25T06:36:30.111Z,62.83
2017-09-25T06:38:57.766Z,74.47
2017-09-25T06:41:25.354Z,78.60
2017-09-25T06:43:52.936Z,65.73
2017-09-25T06:46:20.544Z,58.40
2017-09-25T06:48:48.177Z,59.27
2017-09-25T06:51:15.804Z,62.60
2017-09-25T06:53:43.407Z,56.20
2017-09-25T06:56:10.995Z,66.17
2017-09-25T06:58:38.941Z,54.33
2017-09-25T07:01:06.521Z,55.50
2017-09-25T07:03:34.151Z,60.23
2017-09-25T07:06:02.016Z,71.23
2017-09-25T07:08:29.612Z,75.20
2017-09-25T07:10:57.256Z,62.33
2017-09-25T07:13:24.835Z,73.00
2017-09-25T07:15:52.456Z,63.40
2017-09-25T07:18:20.075Z,54.40
2017-09-25T07:20:47.703Z,67.03
2017-09-25T07:23:15.327Z,63.97
2017-09-25T07:25:42.925Z,69.13
2017-09-25T07:28:10.561Z,64.93
2017-09-25T07:30:38.151Z,66.03
2017-09-25T07:33:05.749Z,76.03
2017-09-25T07:35:33.595Z,73.07
2017-09-25T07:38:01.208Z,70.97
2017-09-25T07:40:28.835Z,92.37
2017-09-25T07:42:56.452Z,60.97
2017-09-25T07:45:24.322Z,64.13
2017-09-25T07:47:51.979Z,75.63
2017-09-25T07:50:19.566Z,73.90
2017-09-25T07:52:47.157Z,67.50
2017-09-25T07:55:14.771Z,76.53
2017-09-25T07:57:42.364Z,71.97
2017-09-25T08:00:09.956Z,67.73
2017-09-25T08:02:37.578Z,79.40
2017-09-25T08:05:05.205Z,62.83
2017-09-25T08:07:32.871Z,56.97
2017-09-25T08:10:00.525Z,76.07
2017-09-25T08:12:28.116Z,68.20
2017-09-25T08:14:55.737Z,74.73
2017-09-25T08:17:23.346Z,76.07
2017-09-25T08:19:50.980Z,63.30
2017-09-25T08:22:18.574Z,58.43
2017-09-25T08:24:46.239Z,53.70
2017-09-25T08:27:13.941Z,71.33
2017-09-25T08:29:41.551Z,74.57
2017-09-25T08:32:09.505Z,60.07
2017-09-25T08:34:37.129Z,63.77
2017-09-25T08:37:05.043Z,59.83
2017-09-25T08:39:32.688Z,66.87
2017-09-25T08:42:00.297Z,63.73
2017-09-25T08:44:27.937Z,59.60
2017-09-25T08:46:55.556Z,70.97
2017-09-25T08:49:23.144Z,61.30
2017-09-25T08:51:50.773Z,82.97
2017-09-25T08:54:18.729Z,75.73
2017-09-25T08:56:46.367Z,73.43
2017-09-25T08:59:13.960Z,63.80
2017-09-25T09:01:41.553Z,71.27
2017-09-25T09:04:09.179Z,98.40
2017-09-25T09:06:36.772Z,74.53
2017-09-25T09:09:04.461Z,77.27
2017-09-25T09:11:32.076Z,70.90
2017-09-25T09:13:59.710Z,66.97
2017-09-25T09:16:27.340Z,72.13
2017-09-25T09:18:54.932Z,67.17
2017-09-25T09:21:22.933Z,62.50
2017-09-25T09:23:50.525Z,66.27
2017-09-25T09:26:18.127Z,63.10
2017-09-25T09:28:46.077Z,65.97
2017-09-25T09:31:13.943Z,77.00
2017-09-25T09:33:41.563Z,58.17
2017-09-25T09:36:09.570Z,67.00
2017-09-25T09:38:37.161Z,62.37
2017-09-25T09:41:04.775Z,74.47
2017-09-25T09:43:32.359Z,63.20
2017-09-25T09:45:59.995Z,72.03
2017-09-25T09:48:27.598Z,57.50
2017-09-25T09:50:55.188Z,50.60
2017-09-25T09:53:22.807Z,52.60
2017-09-25T09:55:50.406Z,49.73
2017-09-25T09:58:18.037Z,52.27
2017-09-25T10:00:45.629Z,47.57
2017-09-25T10:03:13.239Z,49.23
2017-09-25T10:05:41.137Z,49.03
2017-09-25T10:08:08.757Z,54.73
2017-09-25T10:10:36.396Z,49.23
2017-09-25T10:13:04.147Z,52.10
2017-09-25T10:15:31.742Z,59.90
2017-09-25T10:17:59.348Z,50.50
2017-09-25T10:20:26.935Z,54.73
2017-09-25T10:22:54.860Z,46.50
2017-09-25T10:25:22.458Z,47.57
2017-09-25T10:27:50.050Z,62.97
2017-09-25T10:30:17.676Z,50.23
2017-09-25T10:32:45.281Z,48.80
2017-09-25T10:35:12.923Z,45.30
2017-09-25T10:37:40.848Z,57.27
2017-09-25T10:40:08.469Z,51.33
2017-09-25T10:42:36.374Z,50.27
2017-09-25T10:45:03.975Z,52.40
2017-09-25T10:47:31.642Z,49.07
2017-09-25T10:49:59.255Z,53.00
2017-09-25T10:52:26.901Z,50.23
2017-09-25T10:54:54.520Z,48.63
2017-09-25T10:57:22.111Z,50.00
2017-09-25T10:59:50.008Z,44.93
2017-09-25T11:02:17.591Z,55.63
2017-09-25T11:04:45.187Z,46.00
2017-09-25T11:07:12.812Z,45.50
2017-09-25T11:09:40.404Z,45.33
2017-09-25T11:12:08.324Z,46.53
2017-09-25T11:14:35.932Z,47.73
2017-09-25T11:17:03.539Z,44.90
2017-09-25T11:19:31.180Z,64.80
2017-09-25T11:21:58.764Z,59.40
2017-09-25T11:24:26.403Z,59.20
2017-09-25T11:26:53.992Z,63.93
2017-09-25T11:29:21.872Z,74.00
2017-09-25T11:31:49.495Z,70.97
2017-09-25T11:34:17.324Z,74.23
2017-09-25T11:36:44.943Z,65.87
2017-09-25T11:39:12.539Z,77.67
2017-09-25T11:41:40.126Z,62.47
2017-09-25T11:44:07.729Z,55.60
2017-09-25T11:46:35.316Z,55.23
2017-09-25T11:49:02.950Z,66.37
2017-09-25T11:51:30.937Z,59.00
2017-09-25T11:53:58.516Z,54.57
2017-09-25T11:56:26.141Z,51.10
2017-09-25T11:58:53.734Z,50.53
2017-09-25T12:01:21.382Z,45.83
2017-09-25T12:03:48.969Z,49.60
2017-09-25T12:06:16.575Z,43.43
2017-09-25T12:08:44.241Z,44.50
2017-09-25T12:11:11.844Z,54.20
2017-09-25T12:13:39.482Z,46.10
2017-09-25T12:16:07.073Z,48.20
2017-09-25T12:18:34.648Z,35.40
2017-09-25T12:21:02.260Z,46.87
2017-09-25T12:23:29.845Z,48.43
2017-09-25T12:25:57.522Z,46.17
2017-09-25T12:28:25.117Z,43.33
2017-09-25T12:30:52.709Z,42.40
2017-09-25T12:33:20.340Z,39.93
2017-09-25T12:35:47.925Z,40.23
2017-09-25T12:38:15.550Z,36.80
2017-09-25T12:40:43.477Z,36.20
2017-09-25T12:43:11.063Z,35.97
2017-09-25T12:45:39.306Z,37.60
2017-09-25T12:48:06.970Z,46.67
2017-09-25T12:50:34.649Z,40.87
2017-09-25T12:53:02.234Z,44.33
2017-09-25T12:55:30.171Z,31.83
2017-09-25T12:57:57.788Z,33.37
2017-09-25T13:00:25.392Z,34.03
2017-09-25T13:02:53.027Z,39.57
2017-09-25T13:05:20.650Z,36.17
2017-09-25T13:07:48.489Z,26.50
2017-09-25T13:10:16.115Z,25.13
2017-09-25T13:12:43.727Z,36.07
2017-09-25T13:15:11.352Z,28.43
2017-09-25T13:17:39.042Z,33.43
2017-09-25T13:20:06.648Z,34.97
2017-09-25T13:22:34.268Z,40.73
2017-09-25T13:25:01.867Z,31.40
2017-09-25T13:27:29.492Z,36.73
2017-09-25T13:29:57.095Z,28.10
2017-09-25T13:32:24.685Z,29.37
2017-09-25T13:34:52.296Z,31.13
2017-09-25T13:37:19.900Z,36.33
2017-09-25T13:39:47.873Z,30.30
2017-09-25T13:42:15.772Z,30.53
2017-09-25T13:44:43.402Z,36.53
2017-09-25T13:47:11.300Z,29.30
2017-09-25T13:49:38.919Z,34.17
2017-09-25T13:52:06.841Z,27.00
2017-09-25T13:54:34.453Z,28.30
2017-09-25T13:57:02.092Z,30.97
2017-09-25T14:04:35.336Z,28.00
2017-09-25T14:07:03.011Z,33.30
2017-09-25T14:09:30.659Z,31.60
2017-09-25T14:11:58.582Z,29.60
2017-09-25T14:14:26.193Z,27.90
2017-09-25T14:16:53.836Z,30.27
2017-09-25T14:19:21.455Z,33.80
2017-09-25T14:21:49.630Z,34.43
2017-09-25T14:24:17.520Z,29.73
2017-09-25T14:26:45.112Z,28.30
2017-09-25T14:29:13.039Z,31.27
2017-09-25T14:31:40.808Z,32.77
2017-09-25T14:34:08.430Z,27.13
2017-09-25T14:36:36.106Z,29.20
2017-09-25T14:39:03.840Z,29.80
2017-09-25T14:41:31.770Z,35.57
2017-09-25T14:43:59.562Z,27.17
2017-09-25T14:46:27.482Z,34.57
2017-09-25T14:48:55.067Z,34.83
2017-09-25T14:51:22.707Z,28.73
2017-09-25T14:53:50.356Z,33.30
2017-09-25T14:56:18.013Z,28.10
2017-09-25T14:58:45.876Z,25.57
2017-09-25T15:01:13.799Z,25.13
2017-09-25T15:03:41.668Z,37.43
2017-09-25T15:06:09.263Z,29.33
2017-09-25T15:08:36.888Z,25.60
2017-09-25T15:11:04.504Z,27.80
2017-09-25T15:13:32.129Z,30.63
2017-09-25T15:15:59.768Z,25.17
2017-09-25T15:18:27.475Z,26.20
2017-09-25T15:20:55.832Z,20.73
2017-09-25T15:23:24.420Z,20.67
2017-09-25T15:25:53.802Z,23.17
2017-09-25T15:28:21.503Z,22.37
2017-09-25T15:30:49.158Z,24.00
2017-09-25T15:33:16.892Z,23.63
2017-09-25T15:35:44.515Z,23.97
2017-09-25T15:38:13.231Z,24.60
2017-09-25T15:40:40.999Z,24.73
2017-09-25T15:43:08.989Z,29.43
2017-09-25T15:45:36.769Z,28.47
2017-09-25T15:48:04.439Z,28.80
2017-09-25T15:50:32.040Z,22.83
2017-09-25T15:53:01.155Z,21.30
2017-09-25T15:55:28.756Z,23.97
2017-09-25T15:57:56.534Z,21.33
2017-09-25T16:00:24.199Z,26.80
2017-09-25T16:02:52.049Z,24.23
2017-09-25T16:05:19.962Z,23.70
2017-09-25T16:07:47.657Z,21.83
2017-09-25T16:10:15.300Z,26.63
2017-09-25T16:12:42.911Z,21.33
2017-09-25T16:15:10.543Z,25.07
2017-09-25T16:17:38.208Z,24.17
2017-09-25T16:20:05.791Z,23.53
2017-09-25T16:22:33.780Z,26.07
2017-09-25T16:25:01.400Z,28.63
2017-09-25T16:27:29.010Z,20.80
2017-09-25T16:29:56.693Z,21.13
2017-09-25T16:32:24.298Z,22.30
2017-09-25T16:34:51.939Z,26.37
2017-09-25T16:37:19.542Z,21.77
2017-09-25T16:39:47.127Z,22.07
2017-09-25T16:42:14.732Z,26.10
2017-09-25T16:44:42.386Z,26.40
2017-09-25T16:47:10.030Z,24.20
2017-09-25T16:49:38.562Z,24.30
2017-09-25T16:52:06.197Z,23.30
2017-09-25T16:54:33.993Z,25.33
2017-09-25T16:57:01.599Z,23.47
2017-09-25T16:59:29.262Z,22.80
2017-09-25T17:01:56.958Z,35.83
2017-09-25T17:04:25.032Z,28.60
2017-09-25T17:06:53.116Z,24.63
2017-09-25T17:09:20.861Z,25.87
2017-09-25T17:11:48.507Z,25.20
2017-09-25T17:14:16.638Z,23.67
2017-09-25T17:16:44.662Z,24.33
2017-09-25T17:19:12.378Z,25.13
2017-09-25T17:21:40.018Z,25.17
2017-09-25T17:24:07.674Z,23.07
2017-09-25T17:26:35.309Z,30.90
2017-09-25T17:29:02.936Z,24.27
2017-09-25T17:31:30.558Z,24.63
2017-09-25T17:33:58.170Z,24.63
2017-09-25T17:36:25.842Z,24.60
2017-09-25T17:38:53.594Z,28.33
2017-09-25T17:41:21.211Z,26.53
2017-09-25T17:43:49.286Z,25.03
2017-09-25T17:46:16.988Z,26.80
2017-09-25T17:48:44.671Z,27.10
2017-09-25T17:51:12.280Z,28.20
2017-09-25T17:53:39.872Z,28.23
2017-09-25T17:56:07.488Z,37.87
2017-09-25T17:58:35.301Z,28.77
2017-09-25T18:01:02.934Z,30.77
2017-09-25T18:03:30.560Z,28.40
2017-09-25T18:05:58.185Z,31.00
2017-09-25T18:08:25.845Z,32.37
2017-09-25T18:10:53.476Z,35.27
2017-09-25T18:13:21.167Z,28.40
2017-09-25T18:15:48.784Z,26.77
2017-09-25T18:18:16.396Z,33.43
2017-09-25T18:20:44.437Z,42.73
2017-09-25T18:23:12.040Z,37.30
2017-09-25T18:25:39.719Z,33.07
2017-09-25T18:28:07.322Z,28.60
2017-09-25T18:30:34.924Z,26.60
2017-09-25T18:33:02.602Z,33.83
2017-09-25T18:35:30.431Z,38.47
2017-09-25T18:37:58.113Z,34.00
2017-09-25T18:40:25.789Z,33.27
2017-09-25T18:42:53.385Z,30.63
2017-09-25T18:45:21.043Z,35.20
2017-09-25T18:47:48.637Z,25.00
2017-09-25T18:50:16.338Z,31.50
2017-09-25T18:52:43.944Z,26.70
2017-09-25T18:55:11.546Z,31.97
2017-09-25T18:57:39.580Z,31.37
2017-09-25T19:00:07.171Z,33.30
2017-09-25T19:02:35.121Z,28.57
2017-09-25T19:05:02.807Z,32.00
2017-09-25T19:07:30.428Z,33.17
2017-09-25T19:09:58.066Z,30.93
2017-09-25T19:12:25.671Z,28.03
2017-09-25T19:14:53.332Z,28.30
2017-09-25T19:17:20.968Z,30.33
2017-09-25T19:19:48.589Z,35.10
2017-09-25T19:22:16.521Z,29.00
2017-09-25T19:24:44.133Z,31.67
2017-09-25T19:27:12.229Z,45.10
2017-09-25T19:29:39.870Z,28.07
2017-09-25T19:32:07.478Z,30.90
2017-09-25T19:34:35.090Z,27.17
2017-09-25T19:37:02.700Z,30.50
2017-09-25T19:39:32.567Z,35.20
2017-09-25T19:42:00.245Z,28.87
2017-09-25T19:44:27.856Z,35.50
2017-09-25T19:46:56.343Z,34.20
2017-09-25T19:49:34.673Z,31.03
2017-09-25T19:52:02.294Z,29.80
2017-09-25T19:54:30.839Z,32.77
2017-09-25T19:56:58.874Z,36.97
2017-09-25T19:59:26.975Z,51.80
2017-09-25T20:01:55.012Z,33.87
2017-09-25T20:04:22.658Z,29.67
2017-09-25T20:06:50.267Z,29.27
2017-09-25T20:09:17.931Z,28.57
2017-09-25T20:11:45.760Z,28.80
2017-09-25T20:14:19.018Z,26.23
2017-09-25T20:19:55.965Z,30.77
2017-09-25T20:22:23.616Z,33.50
2017-09-25T20:24:51.212Z,34.10
2017-09-25T20:27:18.841Z,33.97
2017-09-25T20:29:46.448Z,32.50
2017-09-25T20:32:14.067Z,29.90
2017-09-25T20:34:41.671Z,31.53
2017-09-25T20:37:09.260Z,29.53
2017-09-25T20:39:36.881Z,29.37
2017-09-25T20:42:04.480Z,26.97
2017-09-25T20:44:32.089Z,32.10
2017-09-25T20:46:59.692Z,30.13
2017-09-25T20:49:27.357Z,29.77
2017-09-25T20:51:54.942Z,30.40
2017-09-25T20:54:22.619Z,37.30
2017-09-25T20:56:50.588Z,32.93
2017-09-25T20:59:18.183Z,41.60
2017-09-25T21:01:45.880Z,80.37
2017-09-25T21:04:13.472Z,37.73
2017-09-25T21:06:41.066Z,49.43
2017-09-25T21:09:08.695Z,33.90
2017-09-25T21:11:36.281Z,32.53
2017-09-25T21:14:03.920Z,34.27
2017-09-25T21:16:31.838Z,28.37
2017-09-25T21:18:59.581Z,34.10
2017-09-25T21:21:27.201Z,26.60
2017-09-25T21:23:54.983Z,32.20
2017-09-25T21:26:26.061Z,35.80
2017-09-25T21:28:53.659Z,37.80
2017-09-25T21:31:21.249Z,29.50
2017-09-25T21:33:48.890Z,36.03
2017-09-25T21:36:16.530Z,36.37
2017-09-25T21:38:44.169Z,30.83
2017-09-25T21:41:11.789Z,28.43
2017-09-25T21:43:40.294Z,39.23
2017-09-25T21:46:07.944Z,33.60
2017-09-25T21:48:35.530Z,30.70
2017-09-25T21:51:03.151Z,35.03
2017-09-25T21:53:30.735Z,30.73
2017-09-25T21:55:58.702Z,26.90
2017-09-25T21:58:26.357Z,50.67
2017-09-25T22:00:53.943Z,37.53
2017-09-25T22:03:21.624Z,42.67
2017-09-25T22:05:49.245Z,45.47
2017-09-25T22:08:16.867Z,32.87
2017-09-25T22:10:44.516Z,31.43
2017-09-25T22:13:12.109Z,31.53
2017-09-25T22:15:39.731Z,24.80
2017-09-25T22:18:07.571Z,33.97
2017-09-25T22:20:35.164Z,34.10
2017-09-25T22:23:02.789Z,34.63
2017-09-25T22:25:30.414Z,28.60
2017-09-25T22:27:58.071Z,28.33
2017-09-25T22:30:25.670Z,32.40
2017-09-25T22:32:53.290Z,35.60
2017-09-25T22:35:20.913Z,26.03
2017-09-25T22:37:48.494Z,30.93
2017-09-25T22:40:16.131Z,39.80
2017-09-25T22:42:43.736Z,47.57
2017-09-25T22:45:11.330Z,75.80
2017-09-25T22:47:38.955Z,47.00
2017-09-25T22:50:06.535Z,32.13
2017-09-25T22:52:34.175Z,32.27
2017-09-25T22:55:01.792Z,35.97
2017-09-25T22:57:29.397Z,31.53
2017-09-25T22:59:57.015Z,31.40
2017-09-25T23:02:24.988Z,31.23
2017-09-25T23:08:02.293Z,29.77
2017-09-25T23:10:29.914Z,38.80
2017-09-25T23:12:57.567Z,65.27
2017-09-25T23:15:25.156Z,32.40
2017-09-25T23:17:52.785Z,32.50
2017-09-25T23:20:20.372Z,34.00
2017-09-25T23:22:48.005Z,36.40
2017-09-25T23:25:15.947Z,31.97
2017-09-25T23:27:43.530Z,34.50
2017-09-25T23:30:26.025Z,34.27
2017-09-25T23:32:53.875Z,38.13
2017-09-25T23:35:21.496Z,37.20
2017-09-25T23:37:49.091Z,41.20
2017-09-25T23:40:16.715Z,30.07
2017-09-25T23:42:44.292Z,32.87
2017-09-25T23:45:11.880Z,38.47
2017-09-25T23:47:39.491Z,41.97
2017-09-25T23:50:07.423Z,37.57
2017-09-25T23:52:35.065Z,34.10
2017-09-25T23:55:02.647Z,31.87
2017-09-25T23:57:30.239Z,36.57
2017-09-25T23:59:57.883Z,37.43
